»·PEaware :: WAT169 KELP-KSNA

WAT169 :: KELP-KSNA

FLIGHT INFORMATION

Flight Status: Arrived
Operator:
Walker Air Transport
More flights by this operator :: More flights under this callsign
Pilot: Marty P. (27464)
Aircraft: DASSAULT AVIATION FALCON 50
(FA50)
More flights by this aircraft type
Origin: KELP El Paso Intl
United States
Destination: KSNA John Wayne-Orange Co
United States
More flights between these airports :: More routes between these airports
Route: +ATKNN5 FLOGS BAYBI EMLLD DSNEE4
File this flight plan on PilotEdge
Remarks:
Altitude:
(Current/Filed)
40,000ft
Speed:
(Current/Filed)
470kts
Departed: 29-Nov-20 12:56 PM
Arrived: 29-Nov-20 02:20 PM
Distance/Time
Traveled:
590nm/1:23
Distance/Time
To Go:
Arrived

Flight Plot

Page will automatically refresh every two minutes.

Flight plan parsing failed; only flown route is shown


Map Options




Map Legend


Flown Route
Filed Route
Departure Airport
Arrival Airport
Navaid (VOR, NDB)
Fix

Horizontal Profiles

Position Reports

Time Latitude Longitude Heading Altitude Ground
Speed
29-Nov-20 12:35 31.794225 -106.380526 326 3944ft 0kts
29-Nov-20 12:36 31.794225 -106.380526 326 3944ft 0kts
29-Nov-20 12:38 31.794225 -106.380526 326 3944ft 0kts
29-Nov-20 12:40 31.794225 -106.380526 326 3944ft 0kts
29-Nov-20 12:43 31.794365 -106.380631 329 3944ft 4kts
29-Nov-20 12:45 31.798112 -106.378224 44 3941ft 8kts
29-Nov-20 12:46 31.799909 -106.378647 273 3941ft 16kts
29-Nov-20 12:46 31.799939 -106.379484 270 3941ft 15kts
29-Nov-20 12:52 31.740698 -106.354422 272 11331ft 247kts
29-Nov-20 12:58 31.907546 -107.135721 281 29447ft 382kts
29-Nov-20 13:00 31.935686 -107.293177 281 33065ft 356kts
29-Nov-20 13:01 31.955490 -107.404753 281 35190ft 346kts
29-Nov-20 13:02 31.974915 -107.514718 281 36921ft 343kts
29-Nov-20 13:03 31.994217 -107.624640 281 38418ft 341kts
29-Nov-20 13:03 32.010160 -107.715743 281 39507ft 343kts
29-Nov-20 13:04 32.029455 -107.826665 281 40319ft 355kts
29-Nov-20 13:05 32.050013 -107.945553 281 40315ft 383kts
29-Nov-20 13:07 32.075437 -108.093545 281 40310ft 405kts
29-Nov-20 13:07 32.094149 -108.203163 281 40304ft 414kts
29-Nov-20 13:08 32.116914 -108.337297 281 40300ft 420kts
29-Nov-20 13:09 32.139890 -108.473793 281 38863ft 428kts
29-Nov-20 13:10 32.162472 -108.608496 281 36581ft 415kts
29-Nov-20 13:11 32.185257 -108.745652 280 34102ft 432kts
29-Nov-20 13:12 32.208393 -108.885776 280 31626ft 443kts
29-Nov-20 13:13 32.232585 -109.033620 280 29134ft 472kts
29-Nov-20 13:15 32.266940 -109.212104 286 28274ft 484kts
29-Nov-20 13:15 32.301201 -109.338328 286 28272ft 484kts
29-Nov-20 13:16 32.342268 -109.489738 286 28271ft 484kts
29-Nov-20 13:17 32.383230 -109.641230 286 28270ft 483kts
29-Nov-20 13:18 32.424072 -109.793186 286 28275ft 483kts
29-Nov-20 13:19 32.464667 -109.945015 286 28273ft 484kts
29-Nov-20 13:20 32.505160 -110.097030 286 28276ft 484kts
29-Nov-20 13:21 32.545399 -110.249079 286 28259ft 485kts
29-Nov-20 13:22 32.585569 -110.401893 286 28231ft 486kts
29-Nov-20 13:23 32.618329 -110.527073 286 28225ft 487kts
29-Nov-20 13:24 32.658325 -110.680667 285 28202ft 487kts
29-Nov-20 13:25 32.698283 -110.834777 285 28163ft 488kts
29-Nov-20 13:26 32.738146 -110.989527 285 28147ft 489kts
29-Nov-20 13:27 32.781474 -111.142383 290 28145ft 490kts
29-Nov-20 13:28 32.832495 -111.293003 290 28148ft 490kts
29-Nov-20 13:29 32.883270 -111.443411 290 28161ft 490kts
29-Nov-20 13:30 32.933883 -111.593665 290 28169ft 490kts
29-Nov-20 13:31 32.984605 -111.744868 290 28177ft 491kts
29-Nov-20 13:32 33.035161 -111.896303 290 28178ft 492kts
29-Nov-20 13:33 33.085518 -112.047907 290 28180ft 492kts
29-Nov-20 13:34 33.135669 -112.199598 290 28185ft 492kts
29-Nov-20 13:35 33.185922 -112.352279 290 28189ft 493kts
29-Nov-20 13:36 33.235910 -112.504994 290 28173ft 494kts
29-Nov-20 13:37 33.285630 -112.657610 290 28172ft 494kts
29-Nov-20 13:38 33.335403 -112.811138 290 28174ft 494kts
29-Nov-20 13:39 33.384820 -112.964311 290 28173ft 494kts
29-Nov-20 13:40 33.434189 -113.118140 290 28173ft 494kts
29-Nov-20 13:41 33.483299 -113.271925 290 28173ft 495kts
29-Nov-20 13:42 33.532267 -113.425972 290 28172ft 496kts
29-Nov-20 13:43 33.581188 -113.580715 290 28176ft 496kts
29-Nov-20 13:44 33.630145 -113.736365 290 28204ft 497kts
29-Nov-20 13:45 33.678695 -113.891503 290 28210ft 499kts
29-Nov-20 13:46 33.727325 -114.047697 290 28196ft 499kts
29-Nov-20 13:47 33.765041 -114.208060 279 28191ft 499kts
29-Nov-20 13:48 33.784583 -114.373582 278 28191ft 499kts
29-Nov-20 13:49 33.803602 -114.538541 278 28190ft 497kts
29-Nov-20 13:50 33.822290 -114.702557 278 28192ft 491kts
29-Nov-20 13:51 33.840554 -114.864703 278 28191ft 487kts
29-Nov-20 13:52 33.858472 -115.025307 278 28194ft 484kts
29-Nov-20 13:53 33.876187 -115.185708 278 28205ft 483kts
29-Nov-20 13:54 33.893731 -115.346544 278 28194ft 484kts
29-Nov-20 13:55 33.911094 -115.507792 278 28178ft 488kts
29-Nov-20 13:56 33.928171 -115.670288 276 28185ft 490kts
29-Nov-20 13:57 33.939312 -115.832918 275 28195ft 480kts
29-Nov-20 13:58 33.950250 -115.991060 276 28052ft 470kts
29-Nov-20 13:59 33.961172 -116.151579 274 26058ft 490kts
29-Nov-20 14:00 33.952740 -116.299920 263 24763ft 393kts
29-Nov-20 14:01 33.937270 -116.425850 263 24008ft 384kts
29-Nov-20 14:02 33.921424 -116.553401 262 21747ft 380kts
29-Nov-20 14:03 33.905674 -116.675337 261 19285ft 369kts
29-Nov-20 14:04 33.890624 -116.794898 263 17018ft 347kts
29-Nov-20 14:05 33.878317 -116.910266 263 14134ft 346kts
29-Nov-20 14:06 33.866252 -117.019916 263 12054ft 318kts
29-Nov-20 14:07 33.855441 -117.117169 263 11971ft 266kts
29-Nov-20 14:08 33.845675 -117.204694 263 10801ft 264kts
29-Nov-20 14:09 33.835830 -117.292162 263 9540ft 263kts
29-Nov-20 14:10 33.826028 -117.378612 263 8055ft 255kts
29-Nov-20 14:11 33.813259 -117.462832 249 7755ft 254kts
29-Nov-20 14:12 33.797308 -117.545400 272 7650ft 259kts
29-Nov-20 14:13 33.800340 -117.627247 281 6680ft 241kts
29-Nov-20 14:14 33.811889 -117.705597 281 5347ft 235kts
29-Nov-20 14:15 33.796418 -117.777140 241 3317ft 227kts
29-Nov-20 14:16 33.752471 -117.819742 207 1918ft 181kts
29-Nov-20 14:17 33.716611 -117.842915 209 845ft 124kts
29-Nov-20 14:18 33.687399 -117.861418 209 213ft 114kts
29-Nov-20 14:19 33.670090 -117.872239 181 63ft 15kts
29-Nov-20 14:20 33.669108 -117.870978 60 63ft 7kts
29-Nov-20 14:21 33.671541 -117.868509 32 63ft 13kts
29-Nov-20 14:22 33.671937 -117.867238 222 63ft 5kts
29-Nov-20 14:23 33.671903 -117.866999 29 63ft 0kts
29-Nov-20 14:24 33.671903 -117.866999 29 63ft 0kts
29-Nov-20 14:25 33.671903 -117.866999 29 63ft 0kts
29-Nov-20 14:26 33.671903 -117.866999 29 63ft 0kts
29-Nov-20 14:27 33.671903 -117.866999 29 63ft 0kts

Navigation Log

Ident Type
Flight plan parsing failed, navigation log unavailable